createdAt,value
2023-11-01T00:01:12.419Z,16.55
2023-11-01T00:03:39.504Z,9.68
2023-11-01T00:06:07.192Z,7.55
2023-11-01T00:08:34.337Z,9.38
2023-11-01T00:11:01.430Z,11.13
2023-11-01T00:13:28.431Z,19.90
2023-11-01T00:15:55.275Z,22.70
2023-11-01T00:18:22.567Z,22.42
2023-11-01T00:20:49.524Z,9.60
2023-11-01T00:23:16.589Z,9.60
2023-11-01T00:25:43.609Z,8.65
2023-11-01T00:28:10.653Z,7.38
2023-11-01T00:30:37.616Z,6.50
2023-11-01T00:33:04.819Z,5.60
2023-11-01T00:35:32.073Z,5.30
2023-11-01T00:37:59.159Z,5.53
2023-11-01T00:40:26.160Z,5.05
2023-11-01T00:42:53.230Z,5.50
2023-11-01T00:45:20.161Z,5.50
2023-11-01T00:47:47.101Z,5.35
2023-11-01T00:50:14.203Z,5.35
2023-11-01T00:52:41.428Z,5.30
2023-11-01T00:55:08.843Z,5.50
2023-11-01T00:57:36.000Z,6.05
2023-11-01T01:00:03.292Z,5.30
2023-11-01T01:02:30.450Z,5.60
2023-11-01T01:04:57.845Z,5.68
2023-11-01T01:07:24.766Z,4.93
2023-11-01T01:09:51.918Z,5.88
2023-11-01T01:12:18.765Z,6.05
2023-11-01T01:14:45.657Z,5.63
2023-11-01T01:17:12.718Z,5.55
2023-11-01T01:19:39.708Z,5.55
2023-11-01T01:22:06.713Z,5.57
2023-11-01T01:24:33.921Z,5.72
2023-11-01T01:27:00.886Z,4.75
2023-11-01T01:29:27.863Z,4.40
2023-11-01T01:31:54.748Z,4.28
2023-11-01T01:34:21.727Z,3.90
2023-11-01T01:36:48.616Z,4.25
2023-11-01T01:39:16.175Z,3.35
2023-11-01T01:41:43.120Z,2.90
2023-11-01T01:44:10.155Z,3.20
2023-11-01T01:46:37.192Z,2.78
2023-11-01T01:49:04.572Z,2.55
2023-11-01T01:51:32.038Z,2.70
2023-11-01T01:53:59.258Z,2.65
2023-11-01T01:56:26.884Z,2.60
2023-11-01T01:58:54.247Z,2.40
2023-11-01T02:01:34.712Z,2.53
2023-11-01T02:04:06.058Z,2.40
2023-11-01T02:06:33.122Z,2.13
2023-11-01T02:09:00.417Z,2.75
2023-11-01T02:11:27.308Z,2.40
2023-11-01T02:13:54.532Z,2.38
2023-11-01T02:16:21.446Z,2.50
2023-11-01T02:18:48.434Z,3.47
2023-11-01T02:21:15.570Z,3.38
2023-11-01T02:23:44.651Z,2.97
2023-11-01T02:26:11.870Z,2.67
2023-11-01T02:28:38.808Z,3.13
2023-11-01T02:31:06.477Z,4.07
2023-11-01T02:33:33.339Z,3.20
2023-11-01T02:36:00.121Z,3.40
2023-11-01T02:38:27.355Z,3.17
2023-11-01T02:40:54.249Z,3.30
2023-11-01T02:43:21.200Z,4.30
2023-11-01T02:45:48.960Z,5.22
2023-11-01T02:48:15.935Z,5.28
2023-11-01T02:50:42.791Z,5.13
2023-11-01T02:53:09.877Z,5.80
2023-11-01T02:55:36.719Z,5.90
2023-11-01T02:58:04.475Z,5.72
2023-11-01T03:00:32.006Z,6.20
2023-11-01T03:02:59.247Z,6.18
2023-11-01T03:05:28.481Z,6.60
2023-11-01T03:07:55.597Z,7.28
2023-11-01T03:10:22.446Z,7.30
2023-11-01T03:12:49.476Z,6.88
2023-11-01T03:15:16.431Z,6.15
2023-11-01T03:17:43.884Z,7.13
2023-11-01T03:20:12.459Z,6.30
2023-11-01T03:22:40.885Z,5.85
2023-11-01T03:25:09.823Z,6.20
2023-11-01T03:27:36.819Z,6.43
2023-11-01T03:30:04.080Z,6.53
2023-11-01T03:32:31.220Z,6.47
2023-11-01T03:34:59.218Z,6.97
2023-11-01T03:37:27.107Z,6.57
2023-11-01T03:39:54.234Z,6.40
2023-11-01T03:42:22.422Z,6.70
2023-11-01T03:44:52.517Z,6.50
2023-11-01T03:47:19.518Z,6.88
2023-11-01T03:49:46.531Z,6.97
2023-11-01T03:52:13.638Z,6.72
2023-11-01T03:54:40.653Z,6.20
2023-11-01T03:57:07.719Z,7.30
2023-11-01T03:59:35.089Z,6.95
2023-11-01T04:02:02.183Z,7.47
2023-11-01T04:04:29.681Z,7.45
2023-11-01T04:06:56.743Z,7.72
2023-11-01T04:09:23.906Z,7.70
2023-11-01T04:11:50.963Z,6.75
2023-11-01T04:14:18.526Z,5.93
2023-11-01T04:16:45.618Z,6.13
2023-11-01T04:19:13.042Z,7.13
2023-11-01T04:21:40.030Z,6.55
2023-11-01T04:24:11.422Z,6.40
2023-11-01T04:26:38.743Z,6.00
2023-11-01T04:29:05.947Z,6.18
2023-11-01T04:31:33.184Z,6.43
2023-11-01T04:34:00.429Z,4.82
2023-11-01T04:36:27.438Z,4.78
2023-11-01T04:38:54.842Z,4.60
2023-11-01T04:41:22.265Z,4.03
2023-11-01T04:43:49.333Z,4.60
2023-11-01T04:46:16.603Z,5.00
2023-11-01T04:48:43.877Z,5.85
2023-11-01T04:51:11.230Z,4.82
2023-11-01T04:53:39.118Z,5.82
2023-11-01T04:56:07.562Z,5.57
2023-11-01T04:58:36.731Z,4.45
2023-11-01T05:01:06.731Z,5.07
2023-11-01T05:03:36.573Z,4.63
2023-11-01T05:06:04.709Z,4.78
2023-11-01T05:08:31.813Z,4.68
2023-11-01T05:10:59.120Z,4.18
2023-11-01T05:13:26.280Z,3.95
2023-11-01T05:15:53.424Z,4.18
2023-11-01T05:18:20.303Z,4.57
2023-11-01T05:20:47.642Z,4.50
2023-11-01T05:23:14.683Z,3.47
2023-11-01T05:25:41.871Z,3.53
2023-11-01T05:28:09.090Z,3.13
2023-11-01T05:30:36.098Z,3.75
2023-11-01T05:33:03.444Z,2.80
2023-11-01T05:35:30.729Z,3.40
2023-11-01T05:37:58.213Z,2.83
2023-11-01T05:40:25.554Z,2.35
2023-11-01T05:42:52.492Z,2.97
2023-11-01T05:45:21.791Z,2.78
2023-11-01T05:47:53.869Z,3.20
2023-11-01T05:50:26.882Z,2.65
2023-11-01T05:52:57.013Z,2.88
2023-11-01T05:55:33.124Z,2.58
2023-11-01T05:58:09.395Z,2.40
2023-11-01T06:00:37.456Z,2.55
2023-11-01T06:03:08.472Z,2.60
2023-11-01T06:08:05.282Z,2.17
2023-11-01T06:10:32.180Z,2.38
2023-11-01T06:12:59.838Z,2.33
2023-11-01T06:15:26.960Z,2.33
2023-11-01T06:17:54.404Z,2.42
2023-11-01T06:20:21.533Z,2.25
2023-11-01T06:22:48.590Z,2.47
2023-11-01T06:25:18.403Z,2.45
2023-11-01T06:27:45.452Z,2.58
2023-11-01T06:30:12.872Z,2.20
2023-11-01T06:32:39.994Z,2.20
2023-11-01T06:35:07.621Z,2.35
2023-11-01T06:37:34.853Z,2.25
2023-11-01T06:40:06.743Z,2.70
2023-11-01T06:42:33.715Z,2.40
2023-11-01T06:45:00.818Z,2.35
2023-11-01T06:47:27.731Z,2.47
2023-11-01T06:49:54.827Z,2.03
2023-11-01T06:52:21.758Z,2.35
2023-11-01T06:54:48.825Z,2.10
2023-11-01T06:57:15.914Z,1.90
2023-11-01T06:59:43.306Z,1.70
2023-11-01T07:02:10.727Z,1.83
2023-11-01T07:04:37.770Z,2.15
2023-11-01T07:07:05.048Z,1.60
2023-11-01T07:09:33.074Z,1.60
2023-11-01T07:12:00.906Z,1.30
2023-11-01T07:14:28.127Z,1.30
2023-11-01T07:16:55.049Z,1.70
2023-11-01T07:19:21.911Z,1.20
2023-11-01T07:21:49.155Z,1.40
2023-11-01T07:24:15.963Z,2.50
2023-11-01T07:26:43.249Z,1.85
2023-11-01T07:29:10.790Z,2.25
2023-11-01T07:31:38.024Z,2.42
2023-11-01T07:34:05.037Z,2.80
2023-11-01T07:36:32.396Z,1.73
2023-11-01T07:38:59.347Z,1.52
2023-11-01T07:41:26.464Z,1.65
2023-11-01T07:43:53.778Z,1.50
2023-11-01T07:46:20.889Z,1.15
2023-11-01T07:48:48.479Z,1.25
2023-11-01T07:51:15.462Z,1.10
2023-11-01T07:53:42.633Z,1.20
2023-11-01T07:56:09.765Z,1.55
2023-11-01T07:58:36.902Z,0.88
2023-11-01T08:01:04.671Z,1.00
2023-11-01T08:03:32.741Z,0.82
2023-11-01T08:06:00.164Z,0.90
2023-11-01T08:08:27.190Z,0.88
2023-11-01T08:10:54.601Z,0.88
2023-11-01T08:13:21.534Z,1.23
2023-11-01T08:15:48.746Z,1.08
2023-11-01T08:18:16.570Z,1.02
2023-11-01T08:20:44.117Z,0.93
2023-11-01T08:23:11.181Z,0.75
2023-11-01T08:25:38.652Z,0.88
2023-11-01T08:28:06.000Z,0.85
2023-11-01T08:30:32.862Z,0.90
2023-11-01T08:32:59.953Z,0.90
2023-11-01T08:35:27.214Z,0.80
2023-11-01T08:37:54.469Z,0.70
2023-11-01T08:40:21.442Z,0.77
2023-11-01T08:42:48.527Z,0.82
2023-11-01T08:45:16.110Z,0.98
2023-11-01T08:47:45.871Z,1.30
2023-11-01T08:50:14.739Z,1.38
2023-11-01T08:52:44.335Z,1.33
2023-11-01T08:55:15.703Z,0.98
2023-11-01T08:57:43.790Z,0.93
2023-11-01T09:00:11.678Z,0.85
2023-11-01T09:02:38.914Z,0.90
2023-11-01T09:05:06.097Z,0.90
2023-11-01T09:07:33.135Z,0.90
2023-11-01T09:10:02.046Z,1.27
2023-11-01T09:12:30.083Z,1.42
2023-11-01T09:14:57.121Z,1.02
2023-11-01T09:17:24.495Z,1.20
2023-11-01T09:19:52.163Z,1.20
2023-11-01T09:22:19.401Z,1.02
2023-11-01T09:24:46.860Z,0.90
2023-11-01T09:27:13.841Z,1.10
2023-11-01T09:29:40.838Z,1.00
2023-11-01T09:32:08.425Z,1.13
2023-11-01T09:34:35.845Z,1.10
2023-11-01T09:37:03.229Z,1.15
2023-11-01T09:39:31.814Z,1.20
2023-11-01T09:42:06.900Z,1.10
2023-11-01T09:44:34.584Z,1.10
2023-11-01T09:47:01.589Z,0.80
2023-11-01T09:49:31.960Z,1.10
2023-11-01T09:52:01.649Z,1.00
2023-11-01T09:54:28.813Z,0.90
2023-11-01T09:56:57.990Z,1.20
2023-11-01T09:59:26.081Z,1.10
2023-11-01T10:01:53.391Z,1.30
2023-11-01T10:04:20.934Z,1.00
2023-11-01T10:06:48.335Z,1.02
2023-11-01T10:09:15.335Z,1.20
2023-11-01T10:11:43.685Z,1.13
2023-11-01T10:14:10.898Z,1.95
2023-11-01T10:16:40.271Z,1.08
2023-11-01T10:19:08.181Z,1.50
2023-11-01T10:21:35.234Z,1.10
2023-11-01T10:24:04.512Z,1.10
2023-11-01T10:26:32.435Z,1.30
2023-11-01T10:29:01.035Z,1.10
2023-11-01T10:31:28.035Z,1.02
2023-11-01T10:33:55.843Z,0.95
2023-11-01T10:36:22.973Z,0.95
2023-11-01T10:38:52.835Z,1.10
2023-11-01T10:41:20.730Z,1.00
2023-11-01T10:43:52.074Z,1.00
2023-11-01T10:46:20.870Z,0.80
2023-11-01T10:48:48.582Z,1.05
2023-11-01T10:51:16.040Z,1.17
2023-11-01T10:53:43.723Z,0.80
2023-11-01T10:56:11.251Z,0.80
2023-11-01T10:58:43.805Z,0.82
2023-11-01T11:01:25.759Z,0.93
2023-11-01T11:04:28.052Z,0.90
2023-11-01T11:07:24.230Z,1.10
2023-11-01T11:10:27.911Z,0.90
2023-11-01T11:13:10.454Z,1.00
2023-11-01T11:15:50.074Z,1.25
2023-11-01T11:18:25.645Z,0.90
2023-11-01T11:20:53.998Z,0.90
2023-11-01T11:23:32.700Z,1.42
2023-11-01T11:26:01.498Z,1.10
2023-11-01T11:28:39.478Z,1.05
2023-11-01T11:31:08.470Z,1.30
2023-11-01T11:33:50.868Z,1.38
2023-11-01T11:36:19.980Z,1.10
2023-11-01T11:38:54.094Z,1.45
2023-11-01T11:41:30.037Z,1.10
2023-11-01T11:44:13.726Z,1.25
2023-11-01T11:46:46.447Z,1.15
2023-11-01T11:49:30.300Z,1.00
2023-11-01T11:52:08.618Z,1.40
2023-11-01T11:54:36.231Z,1.33
2023-11-01T11:57:10.019Z,1.20
2023-11-01T11:59:37.678Z,1.23
2023-11-01T12:02:11.414Z,1.20
2023-11-01T12:04:41.475Z,1.40
2023-11-01T12:07:09.216Z,1.33
2023-11-01T12:09:36.264Z,1.30
2023-11-01T12:12:14.589Z,1.55
2023-11-01T12:14:42.333Z,1.35
2023-11-01T12:17:09.646Z,1.50
2023-11-01T12:19:48.224Z,1.08
2023-11-01T12:22:16.987Z,1.73
2023-11-01T12:24:47.909Z,1.52
2023-11-01T12:27:16.660Z,1.30
2023-11-01T12:29:47.762Z,1.60
2023-11-01T12:32:28.826Z,1.27
2023-11-01T12:34:59.029Z,1.70
2023-11-01T12:37:31.362Z,1.58
2023-11-01T12:40:12.272Z,1.70
2023-11-01T12:42:47.690Z,2.58
2023-11-01T12:45:16.308Z,1.38
2023-11-01T12:47:43.406Z,1.45
2023-11-01T12:50:12.225Z,1.60
2023-11-01T12:52:41.067Z,1.50
2023-11-01T12:55:09.958Z,1.80
2023-11-01T12:57:43.855Z,2.00
2023-11-01T13:00:15.107Z,2.30
2023-11-01T13:05:10.211Z,2.10
2023-11-01T13:07:37.609Z,2.70
2023-11-01T13:10:04.974Z,2.10
2023-11-01T13:12:32.932Z,2.22
2023-11-01T13:14:59.957Z,2.17
2023-11-01T13:17:27.567Z,2.30
2023-11-01T13:19:57.063Z,2.60
2023-11-01T13:22:25.457Z,2.35
2023-11-01T13:24:52.408Z,2.42
2023-11-01T13:27:19.631Z,2.65
2023-11-01T13:29:49.545Z,2.50
2023-11-01T13:32:16.765Z,2.30
2023-11-01T13:34:44.880Z,2.30
2023-11-01T13:37:13.869Z,2.10
2023-11-01T13:39:40.766Z,2.55
2023-11-01T13:42:08.420Z,2.17
2023-11-01T13:44:35.866Z,2.28
2023-11-01T13:47:03.027Z,1.50
2023-11-01T13:49:30.185Z,1.63
2023-11-01T13:51:57.836Z,2.03
2023-11-01T13:54:24.739Z,2.20
2023-11-01T13:56:51.859Z,1.90
2023-11-01T13:59:18.715Z,1.55
2023-11-01T14:01:46.203Z,2.55
2023-11-01T14:04:15.683Z,1.58
2023-11-01T14:06:42.994Z,1.08
2023-11-01T14:09:12.709Z,1.30
2023-11-01T14:11:40.089Z,1.85
2023-11-01T14:14:07.270Z,1.08
2023-11-01T14:16:34.214Z,1.10
2023-11-01T14:19:01.113Z,1.10
2023-11-01T14:21:28.675Z,1.20
2023-11-01T14:23:55.855Z,0.90
2023-11-01T14:26:23.663Z,0.90
2023-11-01T14:28:50.621Z,0.90
2023-11-01T14:31:20.653Z,0.70
2023-11-01T14:33:47.779Z,0.88
2023-11-01T14:36:14.845Z,1.00
2023-11-01T14:38:42.024Z,1.08
2023-11-01T14:41:08.867Z,0.90
2023-11-01T14:43:35.949Z,1.00
2023-11-01T14:46:04.718Z,0.93
2023-11-01T14:48:32.031Z,3.42
2023-11-01T14:50:59.132Z,1.90
2023-11-01T14:53:26.078Z,2.60
2023-11-01T14:55:53.253Z,1.60
2023-11-01T14:58:20.432Z,1.15
2023-11-01T15:00:48.209Z,1.23
2023-11-01T15:03:15.376Z,1.13
2023-11-01T15:05:43.323Z,0.90
2023-11-01T15:08:10.277Z,0.90
2023-11-01T15:10:37.613Z,1.20
2023-11-01T15:13:04.921Z,1.33
2023-11-01T15:15:32.519Z,1.60
2023-11-01T15:17:59.553Z,1.50
2023-11-01T15:20:27.960Z,1.27
2023-11-01T15:22:54.917Z,1.33
2023-11-01T15:25:21.979Z,0.90
2023-11-01T15:27:50.123Z,1.45
2023-11-01T15:30:20.369Z,1.73
2023-11-01T15:32:47.544Z,1.10
2023-11-01T15:35:14.835Z,1.65
2023-11-01T15:37:42.411Z,1.10
2023-11-01T15:40:09.880Z,0.98
2023-11-01T15:42:37.120Z,1.20
2023-11-01T15:45:05.384Z,1.42
2023-11-01T15:47:32.366Z,1.33
2023-11-01T15:49:59.193Z,1.27
2023-11-01T15:52:26.198Z,1.00
2023-11-01T15:54:53.870Z,1.20
2023-11-01T15:57:23.047Z,1.52
2023-11-01T15:59:51.398Z,2.03
2023-11-01T16:02:18.372Z,8.68
2023-11-01T16:04:45.560Z,13.90
2023-11-01T16:07:12.747Z,17.83
2023-11-01T16:09:39.881Z,8.30
2023-11-01T16:12:07.328Z,3.20
2023-11-01T16:14:34.636Z,4.18
2023-11-01T16:17:03.172Z,4.53
2023-11-01T16:19:30.400Z,4.43
2023-11-01T16:21:57.318Z,2.83
2023-11-01T16:24:24.611Z,3.20
2023-11-01T16:26:51.432Z,3.10
2023-11-01T16:29:18.471Z,3.28
2023-11-01T16:31:45.626Z,4.32
2023-11-01T16:34:12.909Z,7.53
2023-11-01T16:36:39.953Z,7.57
2023-11-01T16:39:07.506Z,5.57
2023-11-01T16:41:35.212Z,4.93
2023-11-01T16:44:02.300Z,5.05
2023-11-01T16:46:29.449Z,2.65
2023-11-01T16:48:56.539Z,2.80
2023-11-01T16:51:23.524Z,1.98
2023-11-01T16:53:50.842Z,3.83
2023-11-01T16:56:18.883Z,3.08
2023-11-01T16:58:46.066Z,5.55
2023-11-01T17:01:12.901Z,6.28
2023-11-01T17:03:39.941Z,5.22
2023-11-01T17:06:07.706Z,3.45
2023-11-01T17:08:34.832Z,3.97
2023-11-01T17:11:01.924Z,4.10
2023-11-01T17:13:28.913Z,3.63
2023-11-01T17:15:57.377Z,2.58
2023-11-01T17:18:25.137Z,2.13
2023-11-01T17:20:53.356Z,1.98
2023-11-01T17:23:20.431Z,2.10
2023-11-01T17:25:50.514Z,2.47
2023-11-01T17:28:21.937Z,2.50
2023-11-01T17:33:16.640Z,4.05
2023-11-01T17:35:43.826Z,6.10
2023-11-01T17:38:41.792Z,5.65
2023-11-01T17:41:10.309Z,5.43
2023-11-01T17:43:52.167Z,4.72
2023-11-01T17:48:47.471Z,4.60
2023-11-01T17:51:15.247Z,3.92
2023-11-01T17:53:42.220Z,5.10
2023-11-01T17:56:09.677Z,4.50
2023-11-01T17:58:36.835Z,6.40
2023-11-01T18:01:05.000Z,6.60
2023-11-01T18:03:36.600Z,7.43
2023-11-01T18:06:03.968Z,7.70
2023-11-01T18:08:34.008Z,6.60
2023-11-01T18:11:04.555Z,6.50
2023-11-01T18:13:36.876Z,6.47
2023-11-01T18:16:06.770Z,5.60
2023-11-01T18:18:40.277Z,5.63
2023-11-01T18:21:21.505Z,8.30
2023-11-01T18:26:34.287Z,9.20
2023-11-01T18:29:04.164Z,9.88
2023-11-01T18:31:37.953Z,9.55
2023-11-01T18:34:07.670Z,8.10
2023-11-01T18:36:40.513Z,7.85
2023-11-01T18:39:12.287Z,7.47
2023-11-01T18:41:43.955Z,5.78
2023-11-01T18:44:34.192Z,5.85
2023-11-01T18:47:01.832Z,6.13
2023-11-01T18:49:50.464Z,4.75
2023-11-01T18:52:18.482Z,4.15
2023-11-01T18:54:47.971Z,3.60
2023-11-01T18:57:18.195Z,3.78
2023-11-01T18:59:45.351Z,3.28
2023-11-01T19:02:34.249Z,3.67
2023-11-01T19:05:02.315Z,3.83
2023-11-01T19:07:32.456Z,3.60
2023-11-01T19:09:59.740Z,3.40
2023-11-01T19:12:33.778Z,5.40
2023-11-01T19:15:01.127Z,4.78
2023-11-01T19:17:33.022Z,3.90
2023-11-01T19:20:00.264Z,3.72
2023-11-01T19:22:27.540Z,3.83
2023-11-01T19:24:54.847Z,4.25
2023-11-01T19:27:24.185Z,4.43
2023-11-01T19:29:51.663Z,5.20
2023-11-01T19:32:18.540Z,5.90
2023-11-01T19:34:45.501Z,3.13
2023-11-01T19:37:12.436Z,2.58
2023-11-01T19:39:39.360Z,3.05
2023-11-01T19:42:06.745Z,3.38
2023-11-01T19:44:33.771Z,3.17
2023-11-01T19:47:00.916Z,2.40
2023-11-01T19:49:28.511Z,2.40
2023-11-01T19:51:55.663Z,2.95
2023-11-01T19:54:22.746Z,3.22
2023-11-01T19:56:50.104Z,2.03
2023-11-01T19:59:17.363Z,1.27
2023-11-01T20:01:44.688Z,1.45
2023-11-01T20:04:11.565Z,1.52
2023-11-01T20:06:38.638Z,1.60
2023-11-01T20:09:08.041Z,2.03
2023-11-01T20:11:34.933Z,3.20
2023-11-01T20:14:02.388Z,2.78
2023-11-01T20:16:31.176Z,3.75
2023-11-01T20:18:59.567Z,5.22
2023-11-01T20:21:26.647Z,6.28
2023-11-01T20:23:54.401Z,5.07
2023-11-01T20:26:22.072Z,9.65
2023-11-01T20:28:49.072Z,10.88
2023-11-01T20:31:15.959Z,9.65
2023-11-01T20:33:43.030Z,7.20
2023-11-01T20:36:10.623Z,6.38
2023-11-01T20:38:39.711Z,3.97
2023-11-01T20:41:07.338Z,2.67
2023-11-01T20:43:34.115Z,3.20
2023-11-01T20:46:00.899Z,2.60
2023-11-01T20:48:28.051Z,2.47
2023-11-01T20:50:55.153Z,3.13
2023-11-01T20:53:30.975Z,3.22
2023-11-01T20:55:57.991Z,2.92
2023-11-01T20:58:29.539Z,3.30
2023-11-01T21:00:59.059Z,3.58
2023-11-01T21:03:27.991Z,3.40
2023-11-01T21:05:54.985Z,3.33
2023-11-01T21:08:22.092Z,3.38
2023-11-01T21:10:49.150Z,4.07
2023-11-01T21:13:16.302Z,4.50
2023-11-01T21:15:43.657Z,4.32
2023-11-01T21:18:11.809Z,4.38
2023-11-01T21:20:38.806Z,4.80
2023-11-01T21:23:05.784Z,4.60
2023-11-01T21:25:32.948Z,3.97
2023-11-01T21:28:01.471Z,4.28
2023-11-01T21:30:28.573Z,4.20
2023-11-01T21:32:55.653Z,4.20
2023-11-01T21:35:31.161Z,3.53
2023-11-01T21:38:04.248Z,5.03
2023-11-01T21:40:33.223Z,5.63
2023-11-01T21:43:00.354Z,10.60
2023-11-01T21:45:40.377Z,8.20
2023-11-01T21:48:07.415Z,6.97
2023-11-01T21:50:57.787Z,6.32
2023-11-01T21:53:27.565Z,14.60
2023-11-01T21:55:56.007Z,10.43
2023-11-01T21:58:26.334Z,4.97
2023-11-01T22:01:05.378Z,4.80
2023-11-01T22:03:36.030Z,3.75
2023-11-01T22:06:05.253Z,3.33
2023-11-01T22:08:53.729Z,3.45
2023-11-01T22:11:20.943Z,2.92
2023-11-01T22:13:48.062Z,3.10
2023-11-01T22:16:35.396Z,3.20
2023-11-01T22:19:07.024Z,2.20
2023-11-01T22:21:35.861Z,2.30
2023-11-01T22:24:04.862Z,1.80
2023-11-01T22:26:33.394Z,2.00
2023-11-01T22:29:05.625Z,1.60
2023-11-01T22:31:53.416Z,1.52
2023-11-01T22:34:23.446Z,1.95
2023-11-01T22:36:52.597Z,2.20
2023-11-01T22:39:41.451Z,2.20
2023-11-01T22:42:19.165Z,2.35
2023-11-01T22:44:46.579Z,2.20
2023-11-01T22:47:14.360Z,1.63
2023-11-01T22:49:41.856Z,2.53
2023-11-01T22:52:09.282Z,2.60
2023-11-01T22:54:36.644Z,2.60
2023-11-01T22:57:04.062Z,2.20
2023-11-01T22:59:31.374Z,2.13
2023-11-01T23:01:58.280Z,1.70
2023-11-01T23:04:25.600Z,2.10
2023-11-01T23:06:52.941Z,3.03
2023-11-01T23:09:20.547Z,2.65
2023-11-01T23:11:47.755Z,3.17
2023-11-01T23:14:14.860Z,3.30
2023-11-01T23:16:42.987Z,1.98
2023-11-01T23:19:11.777Z,2.10
2023-11-01T23:21:39.982Z,2.05
2023-11-01T23:24:11.378Z,1.77
2023-11-01T23:26:55.408Z,1.80
2023-11-01T23:29:30.562Z,1.60
2023-11-01T23:31:58.767Z,1.92
2023-11-01T23:34:48.565Z,1.65
2023-11-01T23:37:22.472Z,1.80
2023-11-01T23:39:51.647Z,1.80
2023-11-01T23:42:20.533Z,1.35
2023-11-01T23:44:48.751Z,1.77
2023-11-01T23:47:45.074Z,1.83
2023-11-01T23:50:32.885Z,1.98
2023-11-01T23:53:05.569Z,1.65
2023-11-01T23:55:33.587Z,1.60
2023-11-01T23:58:56.660Z,1.73
